createdAt,value
2018-07-11T00:02:05.828Z,16.44
2018-07-11T00:04:34.981Z,16.40
2018-07-11T00:07:05.229Z,16.38
2018-07-11T00:09:35.587Z,16.39
2018-07-11T00:12:06.167Z,16.35
2018-07-11T00:14:37.137Z,16.35
2018-07-11T00:17:10.786Z,16.33
2018-07-11T00:19:40.436Z,16.31
2018-07-11T00:22:10.224Z,16.28
2018-07-11T00:24:39.794Z,16.24
2018-07-11T00:27:10.457Z,16.21
2018-07-11T00:29:40.280Z,16.20
2018-07-11T00:32:09.543Z,16.16
2018-07-11T00:34:40.095Z,16.14
2018-07-11T00:37:10.781Z,16.14
2018-07-11T00:39:40.126Z,16.13
2018-07-11T00:42:10.895Z,16.10
2018-07-11T00:44:41.833Z,16.10
2018-07-11T00:47:12.233Z,16.04
2018-07-11T00:49:42.109Z,16.02
2018-07-11T00:52:13.532Z,16.01
2018-07-11T00:54:43.570Z,15.99
2018-07-11T00:57:13.675Z,15.95
2018-07-11T00:59:43.958Z,15.92
2018-07-11T01:02:14.313Z,15.87
2018-07-11T01:04:43.537Z,15.88
2018-07-11T01:07:12.864Z,15.90
2018-07-11T01:09:50.462Z,15.87
2018-07-11T01:12:21.648Z,15.83
2018-07-11T01:14:50.900Z,15.83
2018-07-11T01:17:26.627Z,15.86
2018-07-11T01:19:57.659Z,15.84
2018-07-11T01:22:28.364Z,15.83
2018-07-11T01:24:58.600Z,15.84
2018-07-11T01:27:29.208Z,15.82
2018-07-11T01:29:58.914Z,15.79
2018-07-11T01:32:29.442Z,15.76
2018-07-11T01:34:59.503Z,15.75
2018-07-11T01:37:29.862Z,15.73
2018-07-11T01:40:00.210Z,15.68
2018-07-11T01:42:30.741Z,15.68
2018-07-11T01:45:01.572Z,15.67
2018-07-11T01:47:32.255Z,15.65
2018-07-11T01:50:01.466Z,15.63
2018-07-11T01:52:42.088Z,15.62
2018-07-11T01:55:12.839Z,15.60
2018-07-11T01:57:43.071Z,15.61
2018-07-11T02:00:14.085Z,15.61
2018-07-11T02:02:45.127Z,15.64
2018-07-11T02:05:15.545Z,15.65
2018-07-11T02:07:46.059Z,15.52
2018-07-11T02:10:16.752Z,15.49
2018-07-11T02:12:45.923Z,15.50
2018-07-11T02:15:15.439Z,15.50
2018-07-11T02:17:45.785Z,15.49
2018-07-11T02:20:17.387Z,15.45
2018-07-11T02:22:50.733Z,15.42
2018-07-11T02:25:22.184Z,15.41
2018-07-11T02:27:53.228Z,15.35
2018-07-11T02:30:23.638Z,15.31
2018-07-11T02:32:54.356Z,15.27
2018-07-11T02:35:23.759Z,15.24
2018-07-11T02:37:52.861Z,15.21
2018-07-11T02:40:23.265Z,15.18
2018-07-11T02:42:52.689Z,15.17
2018-07-11T02:45:21.745Z,15.14
2018-07-11T02:47:52.186Z,15.12
2018-07-11T02:50:22.069Z,15.10
2018-07-11T02:52:51.558Z,15.09
2018-07-11T02:55:22.709Z,15.06
2018-07-11T02:57:53.138Z,15.02
2018-07-11T03:00:22.889Z,15.02
2018-07-11T03:02:52.753Z,15.02
2018-07-11T03:05:22.937Z,14.99
2018-07-11T03:07:53.895Z,14.96
2018-07-11T03:10:23.377Z,14.96
2018-07-11T03:12:53.805Z,14.91
2018-07-11T03:15:24.086Z,14.90
2018-07-11T03:17:53.712Z,14.88
2018-07-11T03:20:23.986Z,14.86
2018-07-11T03:22:54.495Z,14.82
2018-07-11T03:25:23.720Z,14.79
2018-07-11T03:27:53.877Z,14.78
2018-07-11T03:30:23.133Z,14.79
2018-07-11T03:32:52.974Z,14.81
2018-07-11T03:35:22.893Z,14.82
2018-07-11T03:37:53.522Z,14.81
2018-07-11T03:40:24.219Z,14.81
2018-07-11T03:42:55.126Z,14.80
2018-07-11T03:45:25.294Z,14.83
2018-07-11T03:47:56.395Z,14.83
2018-07-11T03:50:27.247Z,14.87
2018-07-11T03:52:57.785Z,14.85
2018-07-11T03:55:27.878Z,14.77
2018-07-11T03:57:58.698Z,14.63
2018-07-11T04:00:27.843Z,14.63
2018-07-11T04:02:57.375Z,14.61
2018-07-11T04:05:26.532Z,14.64
2018-07-11T04:07:55.755Z,14.64
2018-07-11T04:10:24.814Z,14.67
2018-07-11T04:13:27.796Z,14.69
2018-07-11T04:15:58.375Z,14.69
2018-07-11T04:18:30.470Z,14.72
2018-07-11T04:21:03.049Z,14.74
2018-07-11T04:23:32.111Z,14.77
2018-07-11T04:26:02.975Z,14.79
2018-07-11T04:28:33.383Z,14.81
2018-07-11T04:31:02.507Z,14.84
2018-07-11T04:33:32.986Z,14.85
2018-07-11T04:36:03.896Z,14.88
2018-07-11T04:38:33.049Z,14.86
2018-07-11T04:41:02.172Z,14.85
2018-07-11T04:43:32.522Z,14.81
2018-07-11T04:46:01.950Z,14.84
2018-07-11T04:48:31.476Z,14.88
2018-07-11T04:51:02.938Z,14.90
2018-07-11T04:53:32.875Z,14.95
2018-07-11T04:56:05.516Z,14.98
2018-07-11T04:58:34.840Z,15.01
2018-07-11T05:01:04.520Z,15.01
2018-07-11T05:03:33.873Z,15.06
2018-07-11T05:06:04.617Z,15.10
2018-07-11T05:08:33.816Z,15.14
2018-07-11T05:11:04.803Z,15.09
2018-07-11T05:13:35.048Z,15.10
2018-07-11T05:16:05.933Z,15.13
2018-07-11T05:18:35.822Z,15.09
2018-07-11T05:21:06.422Z,15.13
2018-07-11T05:23:37.452Z,15.08
2018-07-11T05:26:08.101Z,15.12
2018-07-11T05:28:39.640Z,15.17
2018-07-11T05:31:10.285Z,15.14
2018-07-11T05:33:41.308Z,15.13
2018-07-11T05:36:12.268Z,15.25
2018-07-11T05:38:42.905Z,15.40
2018-07-11T05:41:12.032Z,15.50
2018-07-11T05:43:42.645Z,15.64
2018-07-11T05:46:13.189Z,15.75
2018-07-11T05:48:43.775Z,15.89
2018-07-11T05:51:14.322Z,16.02
2018-07-11T05:53:44.896Z,16.14
2018-07-11T05:56:15.248Z,16.28
2018-07-11T05:58:45.291Z,16.34
2018-07-11T06:01:16.217Z,16.30
2018-07-11T06:03:46.284Z,16.32
2018-07-11T06:06:15.592Z,16.29
2018-07-11T06:08:44.784Z,16.34
2018-07-11T06:11:24.267Z,16.43
2018-07-11T06:13:54.887Z,16.49
2018-07-11T06:16:24.246Z,16.52
2018-07-11T06:18:54.411Z,16.55
2018-07-11T06:21:26.684Z,16.57
2018-07-11T06:23:56.206Z,16.64
2018-07-11T06:26:26.323Z,16.71
2018-07-11T06:28:56.965Z,16.71
2018-07-11T06:31:27.002Z,16.68
2018-07-11T06:33:57.519Z,16.57
2018-07-11T06:36:26.911Z,16.57
2018-07-11T06:38:56.108Z,16.58
2018-07-11T06:41:26.409Z,16.56
2018-07-11T06:43:55.483Z,16.46
2018-07-11T06:46:24.990Z,16.40
2018-07-11T06:48:55.115Z,16.50
2018-07-11T06:51:26.351Z,16.69
2018-07-11T06:53:58.801Z,16.61
2018-07-11T06:56:28.516Z,16.79
2018-07-11T06:58:59.182Z,17.03
2018-07-11T07:01:28.862Z,17.16
2018-07-11T07:03:58.120Z,17.37
2018-07-11T07:06:28.173Z,17.54
2018-07-11T07:08:59.282Z,17.62
2018-07-11T07:11:28.290Z,17.68
2018-07-11T07:13:58.865Z,17.73
2018-07-11T07:16:28.791Z,17.82
2018-07-11T07:19:00.566Z,17.78
2018-07-11T07:21:31.289Z,18.03
2018-07-11T07:24:00.338Z,18.27
2018-07-11T07:26:30.485Z,18.35
2018-07-11T07:29:00.996Z,18.39
2018-07-11T07:31:31.074Z,18.44
2018-07-11T07:34:00.155Z,18.57
2018-07-11T07:36:31.480Z,18.64
2018-07-11T07:39:03.104Z,18.58
2018-07-11T07:41:33.903Z,18.57
2018-07-11T07:44:03.811Z,18.49
2018-07-11T07:46:35.264Z,18.31
2018-07-11T07:49:05.856Z,18.25
2018-07-11T07:51:35.904Z,18.16
2018-07-11T07:54:06.221Z,17.99
2018-07-11T07:56:36.500Z,18.06
2018-07-11T07:59:06.788Z,18.17
2018-07-11T08:01:36.002Z,18.28
2018-07-11T08:04:06.824Z,18.31
2018-07-11T08:06:37.450Z,18.37
2018-07-11T08:09:08.117Z,18.52
2018-07-11T08:11:38.895Z,18.71
2018-07-11T08:14:09.259Z,18.77
2018-07-11T08:16:39.476Z,18.81
2018-07-11T08:19:09.940Z,18.70
2018-07-11T08:21:40.056Z,18.62
2018-07-11T08:24:20.854Z,18.55
2018-07-11T08:28:03.098Z,18.54
2018-07-11T08:31:50.884Z,18.69
2018-07-11T08:34:38.673Z,18.91
2018-07-11T08:39:21.831Z,18.74
2018-07-11T08:42:02.907Z,18.69
2018-07-11T08:46:45.674Z,18.65
2018-07-11T08:49:27.306Z,18.55
2018-07-11T08:54:10.170Z,18.58
2018-07-11T08:57:12.798Z,19.01
2018-07-11T08:59:53.700Z,19.44
2018-07-11T09:04:37.232Z,19.39
2018-07-11T09:07:18.428Z,19.14
2018-07-11T09:12:18.854Z,19.25
2018-07-11T09:16:00.231Z,19.57
2018-07-11T09:21:14.404Z,19.79
2018-07-11T09:24:58.055Z,19.93
2018-07-11T09:27:27.401Z,20.23
2018-07-11T09:29:57.810Z,20.57
2018-07-11T09:32:28.242Z,20.73
2018-07-11T09:34:58.599Z,20.67
2018-07-11T09:37:28.148Z,20.67
2018-07-11T09:39:58.437Z,20.52
2018-07-11T09:42:29.041Z,20.67
2018-07-11T09:44:59.885Z,20.82
2018-07-11T09:47:31.681Z,20.71
2018-07-11T09:50:02.164Z,20.58
2018-07-11T09:52:32.617Z,20.33
2018-07-11T09:55:02.812Z,19.98
2018-07-11T09:57:33.852Z,19.12
2018-07-11T10:00:04.559Z,18.89
2018-07-11T10:02:35.286Z,18.83
2018-07-11T10:05:04.882Z,18.82
2018-07-11T10:07:35.359Z,18.80
2018-07-11T10:10:05.864Z,18.80
2018-07-11T10:12:36.705Z,18.61
2018-07-11T10:15:07.011Z,18.56
2018-07-11T10:17:37.920Z,18.59
2018-07-11T10:20:08.650Z,18.54
2018-07-11T10:22:37.720Z,18.54
2018-07-11T10:25:08.788Z,18.57
2018-07-11T10:27:37.872Z,18.50
2018-07-11T10:30:08.478Z,18.51
2018-07-11T10:32:39.193Z,18.49
2018-07-11T10:35:08.909Z,18.61
2018-07-11T10:37:38.145Z,18.61
2018-07-11T10:40:08.474Z,18.70
2018-07-11T10:42:37.690Z,18.67
2018-07-11T10:45:07.809Z,18.77
2018-07-11T10:47:38.175Z,18.77
2018-07-11T10:50:08.514Z,18.74
2018-07-11T10:52:38.932Z,18.74
2018-07-11T10:55:09.048Z,18.76
2018-07-11T10:57:40.183Z,18.84
2018-07-11T11:00:09.905Z,18.98
2018-07-11T11:02:39.614Z,19.09
2018-07-11T11:05:08.689Z,19.18
2018-07-11T11:07:39.870Z,19.21
2018-07-11T11:10:09.735Z,19.37
2018-07-11T11:12:40.001Z,19.43
2018-07-11T11:15:10.462Z,19.55
2018-07-11T11:17:40.839Z,19.68
2018-07-11T11:20:10.480Z,19.64
2018-07-11T11:22:39.526Z,19.68
2018-07-11T11:25:09.811Z,19.80
2018-07-11T11:27:40.440Z,19.86
2018-07-11T11:30:11.051Z,19.93
2018-07-11T11:32:41.317Z,20.03
2018-07-11T11:35:10.873Z,20.10
2018-07-11T11:37:41.005Z,20.20
2018-07-11T11:40:11.670Z,20.31
2018-07-11T11:42:42.700Z,20.28
2018-07-11T11:45:13.024Z,20.24
2018-07-11T11:47:42.524Z,20.28
2018-07-11T11:50:13.457Z,20.32
2018-07-11T11:52:42.806Z,20.43
2018-07-11T11:55:12.312Z,20.44
2018-07-11T11:57:43.149Z,20.58
2018-07-11T12:00:13.017Z,20.88
2018-07-11T12:02:42.517Z,21.26
2018-07-11T12:05:12.802Z,21.50
2018-07-11T12:07:43.036Z,21.65
2018-07-11T12:10:12.502Z,21.89
2018-07-11T12:12:41.876Z,22.33
2018-07-11T12:15:12.054Z,22.37
2018-07-11T12:17:42.237Z,22.48
2018-07-11T12:20:11.780Z,22.14
2018-07-11T12:22:41.141Z,22.04
2018-07-11T12:25:11.310Z,21.97
2018-07-11T12:27:42.346Z,21.92
2018-07-11T12:30:12.876Z,21.82
2018-07-11T12:32:41.940Z,21.84
2018-07-11T12:35:13.166Z,21.94
2018-07-11T12:37:42.510Z,22.11
2018-07-11T12:40:13.207Z,22.08
2018-07-11T12:42:42.293Z,21.87
2018-07-11T12:45:11.420Z,21.93
2018-07-11T12:47:46.454Z,22.12
2018-07-11T12:50:17.548Z,22.10
2018-07-11T12:52:48.315Z,22.21
2018-07-11T12:55:17.646Z,22.24
2018-07-11T12:57:47.200Z,22.20
2018-07-11T13:00:17.340Z,22.21
2018-07-11T13:02:47.014Z,22.15
2018-07-11T13:05:17.298Z,22.07
2018-07-11T13:07:46.391Z,22.11
2018-07-11T13:10:16.249Z,22.21
2018-07-11T13:12:45.274Z,22.36
2018-07-11T13:15:16.126Z,22.23
2018-07-11T13:17:46.323Z,22.35
2018-07-11T13:20:15.546Z,22.68
2018-07-11T13:22:45.834Z,22.79
2018-07-11T13:25:15.014Z,22.52
2018-07-11T13:27:44.813Z,22.41
2018-07-11T13:30:14.139Z,22.63
2018-07-11T13:32:43.655Z,22.29
2018-07-11T13:35:13.375Z,21.53
2018-07-11T13:37:42.466Z,21.69
2018-07-11T13:40:12.407Z,21.83
2018-07-11T13:42:42.294Z,21.52
2018-07-11T13:45:11.656Z,21.58
2018-07-11T13:47:41.481Z,21.79
2018-07-11T13:50:10.891Z,22.05
2018-07-11T13:52:40.398Z,21.88
2018-07-11T13:55:10.378Z,21.65
2018-07-11T13:57:39.878Z,21.58
2018-07-11T14:00:09.824Z,22.03
2018-07-11T14:02:39.413Z,22.45
2018-07-11T14:05:08.490Z,22.46
2018-07-11T14:07:38.424Z,22.12
2018-07-11T14:10:08.289Z,21.81
2018-07-11T14:12:37.367Z,21.56
2018-07-11T14:15:06.486Z,21.35
2018-07-11T14:17:35.779Z,21.24
2018-07-11T14:20:06.740Z,21.07
2018-07-11T14:22:36.920Z,20.98
2018-07-11T14:25:06.473Z,20.89
2018-07-11T14:27:46.993Z,20.75
2018-07-11T14:30:16.723Z,20.37
2018-07-11T14:32:52.706Z,20.24
2018-07-11T14:35:22.357Z,20.19
2018-07-11T14:37:52.394Z,20.15
2018-07-11T14:40:22.577Z,20.09
2018-07-11T14:42:51.678Z,20.12
2018-07-11T14:45:20.969Z,20.26
2018-07-11T14:47:56.449Z,20.48
2018-07-11T14:50:26.659Z,20.73
2018-07-11T14:52:57.047Z,20.92
2018-07-11T14:55:26.391Z,21.04
2018-07-11T14:57:56.400Z,21.02
2018-07-11T15:00:26.472Z,20.96
2018-07-11T15:02:56.561Z,20.99
2018-07-11T15:05:26.649Z,21.11
2018-07-11T15:07:57.139Z,21.18
2018-07-11T15:10:27.917Z,21.22
2018-07-11T15:12:57.849Z,21.16
2018-07-11T15:15:27.667Z,21.07
2018-07-11T15:17:57.027Z,21.17
2018-07-11T15:20:27.424Z,21.07
2018-07-11T15:22:57.459Z,21.17
2018-07-11T15:25:27.413Z,21.18
2018-07-11T15:27:57.712Z,21.19
2018-07-11T15:30:27.853Z,21.34
2018-07-11T15:32:57.723Z,21.44
2018-07-11T15:35:26.962Z,21.52
2018-07-11T15:37:57.184Z,21.63
2018-07-11T15:40:27.147Z,21.76
2018-07-11T15:42:57.267Z,21.91
2018-07-11T15:45:27.579Z,21.92
2018-07-11T15:47:57.599Z,22.31
2018-07-11T15:50:27.804Z,22.99
2018-07-11T15:52:58.329Z,23.50
2018-07-11T15:55:28.766Z,23.85
2018-07-11T15:58:03.449Z,24.06
2018-07-11T16:00:38.409Z,23.64
2018-07-11T16:03:08.027Z,22.85
2018-07-11T16:05:46.943Z,22.23
2018-07-11T16:08:18.370Z,21.75
2018-07-11T16:10:50.095Z,21.58
2018-07-11T16:13:19.262Z,21.53
2018-07-11T16:15:48.319Z,21.06
2018-07-11T16:18:18.056Z,21.02
2018-07-11T16:20:47.243Z,21.17
2018-07-11T16:23:16.839Z,21.47
2018-07-11T16:25:46.528Z,21.75
2018-07-11T16:41:10.757Z,22.05
2018-07-11T16:43:39.894Z,21.44
2018-07-11T16:46:10.153Z,21.39
2018-07-11T16:48:39.240Z,21.24
2018-07-11T16:51:09.665Z,21.00
2018-07-11T16:53:39.680Z,20.90
2018-07-11T16:56:10.056Z,20.89
2018-07-11T16:58:48.234Z,20.93
2018-07-11T17:01:17.780Z,20.94
2018-07-11T17:03:46.886Z,20.95
2018-07-11T17:06:16.640Z,20.93
2018-07-11T17:08:52.533Z,20.81
2018-07-11T17:11:24.696Z,20.72
2018-07-11T17:13:56.258Z,20.58
2018-07-11T17:16:32.237Z,20.55
2018-07-11T17:19:11.125Z,20.54
2018-07-11T17:21:45.608Z,20.58
2018-07-11T17:24:18.905Z,20.55
2018-07-11T17:26:49.168Z,20.47
2018-07-11T17:29:25.396Z,20.44
2018-07-11T17:32:02.063Z,20.35
2018-07-11T17:34:31.928Z,20.27
2018-07-11T17:37:02.852Z,20.20
2018-07-11T17:39:52.375Z,20.14
2018-07-11T17:42:29.158Z,20.04
2018-07-11T17:45:08.924Z,19.98
2018-07-11T17:47:56.632Z,19.88
2018-07-11T17:50:28.738Z,19.84
2018-07-11T17:53:10.533Z,19.79
2018-07-11T17:56:14.471Z,19.69
2018-07-11T17:58:59.998Z,19.68
2018-07-11T18:01:36.642Z,19.62
2018-07-11T18:04:13.239Z,19.55
2018-07-11T18:06:55.057Z,19.50
2018-07-11T18:09:24.897Z,19.41
2018-07-11T18:12:00.060Z,19.37
2018-07-11T18:14:34.963Z,19.27
2018-07-11T18:17:22.689Z,19.19
2018-07-11T18:20:10.107Z,19.12
2018-07-11T18:24:53.107Z,19.01
2018-07-11T18:27:36.087Z,18.91
2018-07-11T18:30:17.025Z,18.83
2018-07-11T18:33:01.981Z,18.71
2018-07-11T18:35:45.819Z,18.62
2018-07-11T18:38:31.923Z,18.58
2018-07-11T18:41:13.075Z,18.49
2018-07-11T18:43:54.217Z,18.43
2018-07-11T18:46:42.853Z,18.40
2018-07-11T18:49:24.690Z,18.31
2018-07-11T18:52:13.069Z,18.22
2018-07-11T18:55:55.474Z,18.16
2018-07-11T18:58:38.402Z,18.09
2018-07-11T19:01:29.432Z,18.01
2018-07-11T19:04:17.478Z,17.94
2018-07-11T19:07:59.035Z,17.91
2018-07-11T19:10:40.573Z,17.75
2018-07-11T19:13:48.493Z,17.68
2018-07-11T19:16:26.876Z,17.60
2018-07-11T19:19:03.073Z,17.55
2018-07-11T19:21:41.548Z,17.50
2018-07-11T19:24:17.249Z,17.46
2018-07-11T19:27:02.890Z,17.41
2018-07-11T19:30:47.925Z,17.36
2018-07-11T19:33:28.278Z,17.30
2018-07-11T19:36:37.860Z,17.30
2018-07-11T19:39:13.697Z,17.30
2018-07-11T19:41:54.500Z,17.26
2018-07-11T19:44:34.716Z,17.19
2018-07-11T19:47:16.559Z,17.16
2018-07-11T19:49:58.937Z,17.14
2018-07-11T19:52:35.721Z,17.08
2018-07-11T19:55:18.039Z,17.00
2018-07-11T19:57:48.358Z,16.94
2018-07-11T20:00:17.712Z,16.90
2018-07-11T20:02:46.853Z,16.85
2018-07-11T20:05:16.952Z,16.81
2018-07-11T20:07:46.968Z,16.78
2018-07-11T20:10:16.599Z,16.71
2018-07-11T20:12:45.759Z,16.69
2018-07-11T20:15:15.341Z,16.64
2018-07-11T20:17:45.513Z,16.56
2018-07-11T20:20:15.036Z,16.49
2018-07-11T20:25:28.284Z,16.42
2018-07-11T20:27:57.468Z,16.40
2018-07-11T20:30:27.050Z,16.39
2018-07-11T20:32:57.362Z,16.33
2018-07-11T20:35:26.809Z,16.23
2018-07-11T20:37:57.590Z,16.18
2018-07-11T20:40:26.621Z,16.13
2018-07-11T20:42:55.697Z,16.10
2018-07-11T20:45:25.228Z,16.08
2018-07-11T20:47:55.582Z,16.04
2018-07-11T20:50:25.713Z,15.99
2018-07-11T21:05:49.605Z,15.90
2018-07-11T21:11:35.531Z,15.54
2018-07-11T21:24:19.311Z,15.54
2018-07-11T21:26:52.035Z,15.45
2018-07-11T21:29:22.349Z,15.43
2018-07-11T21:31:52.516Z,15.46
2018-07-11T21:34:23.197Z,15.43
2018-07-11T21:36:53.797Z,15.42
2018-07-11T21:39:24.230Z,15.40
2018-07-11T21:41:55.006Z,15.37
2018-07-11T21:44:24.226Z,15.34
2018-07-11T21:46:55.221Z,15.29
2018-07-11T21:49:25.764Z,15.28
2018-07-11T21:51:55.678Z,15.25
2018-07-11T21:54:26.140Z,15.24
2018-07-11T21:56:56.566Z,15.19
2018-07-11T21:59:27.329Z,15.15
2018-07-11T22:01:57.741Z,15.11
2018-07-11T22:04:28.264Z,15.03
2018-07-11T22:06:58.588Z,15.01
2018-07-11T22:09:29.449Z,14.98
2018-07-11T22:11:59.731Z,14.98
2018-07-11T22:14:29.920Z,14.98
2018-07-11T22:17:10.295Z,14.96
2018-07-11T22:19:38.563Z,14.92
2018-07-11T22:22:07.450Z,14.87
2018-07-11T22:24:35.700Z,14.79
2018-07-11T22:27:04.422Z,14.70
2018-07-11T22:29:33.506Z,14.58
2018-07-11T22:32:01.358Z,14.52
2018-07-11T22:34:30.180Z,14.48
2018-07-11T22:36:58.349Z,14.48
2018-07-11T22:39:27.178Z,14.47
2018-07-11T22:41:55.037Z,14.48
2018-07-11T22:44:23.709Z,14.42
2018-07-11T22:46:52.487Z,14.41
2018-07-11T22:49:20.387Z,14.42
2018-07-11T22:51:48.842Z,14.41
2018-07-11T22:54:16.732Z,14.40
2018-07-11T22:56:45.535Z,14.39
2018-07-11T22:59:13.553Z,14.37
2018-07-11T23:01:41.495Z,14.37
2018-07-11T23:04:09.344Z,14.35
2018-07-11T23:06:37.974Z,14.35
2018-07-11T23:09:06.374Z,14.33
2018-07-11T23:11:35.388Z,14.28
2018-07-11T23:14:03.260Z,14.24
2018-07-11T23:16:31.972Z,14.23
2018-07-11T23:19:01.253Z,14.14
2018-07-11T23:21:29.453Z,14.14
2018-07-11T23:23:58.323Z,14.10
2018-07-11T23:26:26.502Z,14.02
2018-07-11T23:28:54.422Z,13.94
2018-07-11T23:31:22.359Z,13.92
2018-07-11T23:33:50.294Z,13.90
2018-07-11T23:36:18.174Z,13.89
2018-07-11T23:38:46.158Z,13.88
2018-07-11T23:41:13.916Z,13.85
2018-07-11T23:43:42.164Z,13.84
2018-07-11T23:46:10.051Z,13.79
2018-07-11T23:48:38.946Z,13.72
2018-07-11T23:51:07.248Z,13.69
2018-07-11T23:53:36.163Z,13.68
2018-07-11T23:56:04.048Z,13.69
2018-07-11T23:58:31.973Z,13.68
